X  Sluiten METAR luchtvaart weer gegevens      EHAM Amsterdam Airport Schiphol
Temperatuur
8°C Temperatuur
5°C Dauwpunt
82% Vochtigheid



Wind
14 KM/U
9 MPH
4 M/S
8 KTS



120°
OZO
Huidig weer

Helder Helder
Luchtdruk 1015.92 (hPa) - 30 (inHg)
Zicht 6.2 (mijl) - 10 (km)
Vliegveld
Vliegveld code EHAM

Locatie : Amsterdam Airport Schiphol
Afstand: 20 (km)

Metar:
EHAM 191755Z 12008KT CAVOK 08/05 Q1016 NOSIG

Tijd: 19-10-2020 19:55 CEST